KORS

Orcas Island Airport

Eastsound, Washington, USA
METAR KORS 171835Z AUTO 33005KT 9SM CLR 13/11 A3020 RMK AO2
Observed Flight Rules
Oct-17 @ 18:35 UTC (10 minutes ago) Visual Flight Rules
Wind Visibility Clouds
330° at 5 knots 9 miles
  • Clear skies
Temperatures Readings
Current 13°C / 55°F
Dewpoint 11°C / 52°F
Humidity 88%
Altimeter 30.2" Hg
Pressure 1023 hPa
Elevation 9
METAR KORS 171835Z AUTO 33005KT 9SM CLR 13/11 A3020 RMK AO2
Observed Flight Rules
Oct-17 @ 18:35 UTC
(10 minutes ago)
VFR
Wind Visibility
330° at 5 knots 9 miles
Clouds
  • Clear skies
Temperature Dewpoint
13°C / 55°F 11°C / 52°F
Humidity Altimeter Pressure
88% 30.2" Hg 1023 hPa